Time;durP1;ratioP1;P1;durP2;ratioP2;P2;SDS_P1;SDS_P2;PMS_P1;PMS_P2;Temp;Humidity;BMP_temperature;BMP_pressure;BME280_temperature;BME280_humidity;BME280_pressure;Samples;Min_cycle;Max_cycle;Signal;HPM_P1;HPM_P2
2021/08/10 00:01:04;;;;;;;1.35;0.90;;;24.80;50.50;;;;;;5052924;28;20025;-59
2021/08/10 00:03:30;;;;;;;1.55;1.00;;;24.80;50.60;;;;;;5053431;28;20016;-59
2021/08/10 00:05:56;;;;;;;1.45;1.20;;;24.80;50.50;;;;;;5053345;28;20360;-59
2021/08/10 00:08:22;;;;;;;2.17;1.10;;;24.70;50.40;;;;;;5053700;28;20025;-57
2021/08/10 00:10:50;;;;;;;1.42;1.00;;;24.70;50.40;;;;;;5052883;28;20036;-57
2021/08/10 00:13:19;;;;;;;1.10;1.00;;;24.70;50.40;;;;;;5053751;28;20021;-59
2021/08/10 00:15:45;;;;;;;1.60;1.27;;;24.70;50.40;;;;;;5035529;28;20408;-59
2021/08/10 00:18:12;;;;;;;1.40;0.98;;;24.70;50.40;;;;;;5053154;28;20083;-59
2021/08/10 00:20:38;;;;;;;1.17;0.95;;;24.70;50.40;;;;;;5052650;28;20071;-61
2021/08/10 00:23:04;;;;;;;1.48;0.98;;;24.70;50.40;;;;;;5053262;28;20063;-60
2021/08/10 00:25:29;;;;;;;1.17;0.90;;;24.70;50.40;;;;;;5052922;28;20383;-62
2021/08/10 00:27:56;;;;;;;1.40;0.80;;;24.70;51.10;;;;;;5053154;28;20027;-61
2021/08/10 00:30:23;;;;;;;1.63;0.93;;;24.70;50.50;;;;;;5017222;28;20044;-61
2021/08/10 00:32:49;;;;;;;1.20;1.02;;;24.70;50.50;;;;;;5052649;28;20025;-59
2021/08/10 00:35:15;;;;;;;1.25;1.00;;;24.70;50.50;;;;;;5034832;28;20021;-60
2021/08/10 00:37:42;;;;;;;1.08;0.82;;;24.60;50.40;;;;;;5035207;28;20036;-59
2021/08/10 00:40:09;;;;;;;2.10;1.35;;;24.60;50.50;;;;;;5035027;28;20032;-61
2021/08/10 00:42:35;;;;;;;1.15;0.90;;;24.60;50.40;;;;;;5034935;28;20020;-61
2021/08/10 00:45:04;;;;;;;1.48;1.10;;;24.60;50.50;;;;;;5034023;28;20079;-59
2021/08/10 00:47:34;;;;;;;2.00;1.15;;;24.60;50.50;;;;;;5034699;28;20377;-60
2021/08/10 00:50:00;;;;;;;1.05;0.88;;;24.60;50.60;;;;;;5034616;28;20032;-60
2021/08/10 00:52:28;;;;;;;1.05;0.80;;;24.60;50.50;;;;;;5034276;28;20025;-61
2021/08/10 00:54:54;;;;;;;1.58;1.10;;;24.60;50.60;;;;;;5034991;28;20372;-59
2021/08/10 00:57:20;;;;;;;1.20;0.90;;;24.60;50.60;;;;;;5035658;28;20025;-60
2021/08/10 00:59:46;;;;;;;1.20;0.80;;;24.60;50.60;;;;;;5034875;28;20095;-56
2021/08/10 01:02:12;;;;;;;1.08;0.88;;;24.50;50.50;;;;;;5034553;28;20457;-60
2021/08/10 01:04:40;;;;;;;1.27;1.00;;;24.50;50.60;;;;;;5034551;28;20124;-59
2021/08/10 01:07:18;;;;;;;1.20;1.00;;;24.50;50.60;;;;;;5034528;28;20473;-60
2021/08/10 01:09:55;;;;;;;1.83;1.00;;;24.50;50.60;;;;;;5033267;28;20078;-60
2021/08/10 01:12:29;;;;;;;1.00;0.90;;;24.50;50.60;;;;;;5052380;28;20021;-60
2021/08/10 01:15:13;;;;;;;1.67;1.10;;;24.50;50.60;;;;;;5030200;28;20048;-58
2021/08/10 01:17:58;;;;;;;1.27;0.95;;;24.50;50.60;;;;;;5031426;28;20037;-60
2021/08/10 01:20:37;;;;;;;1.67;1.20;;;24.50;50.60;;;;;;5029101;28;20034;-61
2021/08/10 01:23:06;;;;;;;1.13;0.93;;;24.40;50.60;;;;;;5030387;28;20057;-58
2021/08/10 01:25:53;;;;;;;1.15;1.00;;;24.40;50.60;;;;;;5031476;28;20043;-60
2021/08/10 01:28:52;;;;;;;1.70;1.10;;;24.40;50.70;;;;;;5029226;28;20348;-60
2021/08/10 01:31:23;;;;;;;1.60;1.00;;;24.40;50.70;;;;;;5029941;28;20025;-60
2021/08/10 01:33:58;;;;;;;1.67;1.02;;;24.40;50.70;;;;;;5035237;28;20575;-58
2021/08/10 01:36:26;;;;;;;1.33;0.90;;;24.40;50.70;;;;;;5035405;28;20025;-58
2021/08/10 01:38:57;;;;;;;1.42;0.93;;;24.40;50.70;;;;;;5035087;28;20086;-58
2021/08/10 01:41:25;;;;;;;1.83;1.00;;;24.40;50.80;;;;;;5035024;28;20040;-59
2021/08/10 01:43:57;;;;;;;1.65;1.05;;;24.40;50.80;;;;;;5034652;28;20132;-59
2021/08/10 01:46:25;;;;;;;1.42;0.98;;;24.40;50.80;;;;;;5033356;28;20076;-58
2021/08/10 01:48:54;;;;;;;1.30;1.05;;;24.30;50.80;;;;;;5034815;28;20029;-59
2021/08/10 01:51:24;;;;;;;1.38;1.00;;;24.30;50.80;;;;;;5034622;28;20099;-59
2021/08/10 01:53:52;;;;;;;1.30;0.98;;;24.40;50.90;;;;;;5034525;28;20099;-57
2021/08/10 01:56:19;;;;;;;1.15;1.00;;;24.30;50.80;;;;;;5034638;28;20136;-59
2021/08/10 01:58:48;;;;;;;1.42;1.00;;;24.30;50.80;;;;;;5035014;28;20029;-59
2021/08/10 02:01:15;;;;;;;1.83;1.10;;;24.30;50.80;;;;;;5035323;28;20483;-57
2021/08/10 02:03:44;;;;;;;1.52;1.08;;;24.30;50.90;;;;;;5033774;28;20405;-60
2021/08/10 02:06:14;;;;;;;0.98;0.80;;;24.30;50.90;;;;;;5033883;28;20045;-59
2021/08/10 02:08:42;;;;;;;1.65;1.10;;;24.30;50.90;;;;;;5034732;28;20029;-59
2021/08/10 02:11:10;;;;;;;2.13;1.15;;;24.30;50.90;;;;;;5033807;28;20060;-61
2021/08/10 02:13:36;;;;;;;1.42;1.00;;;24.30;50.90;;;;;;5036047;28;20090;-58
2021/08/10 02:16:08;;;;;;;1.13;0.90;;;24.30;50.90;;;;;;5052542;28;20123;-59
2021/08/10 02:18:35;;;;;;;1.10;0.90;;;24.30;50.90;;;;;;5037227;28;20033;-57
2021/08/10 02:21:10;;;;;;;1.33;1.00;;;24.30;50.90;;;;;;5055658;28;20033;-60
2021/08/10 02:23:39;;;;;;;1.55;1.00;;;24.30;50.90;;;;;;5037259;28;20029;-58
2021/08/10 02:26:06;;;;;;;1.40;1.00;;;24.20;50.90;;;;;;5037377;28;20128;-57
2021/08/10 02:28:33;;;;;;;1.08;0.80;;;24.20;50.90;;;;;;5037323;28;20029;-59
2021/08/10 02:31:02;;;;;;;1.52;0.90;;;24.20;50.90;;;;;;5037783;28;20428;-59
2021/08/10 02:33:36;;;;;;;1.67;1.10;;;24.20;50.80;;;;;;5037126;28;20104;-59
2021/08/10 02:36:03;;;;;;;2.10;1.23;;;24.20;50.80;;;;;;5037706;28;20044;-58
2021/08/10 02:38:37;;;;;;;1.00;0.90;;;24.20;50.80;;;;;;5036985;28;20090;-60
2021/08/10 02:41:04;;;;;;;1.30;0.80;;;24.20;50.80;;;;;;5036921;28;20025;-60
2021/08/10 02:43:36;;;;;;;1.42;1.02;;;24.20;50.80;;;;;;5035804;28;20021;-56
2021/08/10 02:46:05;;;;;;;1.30;0.95;;;24.20;50.80;;;;;;5036182;28;20139;-58
2021/08/10 02:48:32;;;;;;;1.38;1.00;;;24.20;50.80;;;;;;5035676;28;20063;-56
2021/08/10 02:50:59;;;;;;;0.93;0.82;;;24.20;50.80;;;;;;5054866;28;20095;-58
2021/08/10 02:53:25;;;;;;;1.30;1.00;;;24.20;50.80;;;;;;5037123;28;20356;-59
2021/08/10 02:56:23;;;;;;;1.85;1.17;;;24.20;51.40;;;;;;5037128;28;20060;-58
2021/08/10 02:59:20;;;;;;;1.02;0.93;;;24.20;50.80;;;;;;5036596;28;20065;-58
2021/08/10 03:01:53;;;;;;;1.30;0.85;;;24.20;50.90;;;;;;5054695;28;20048;-57
2021/08/10 03:04:23;;;;;;;1.27;1.00;;;24.20;50.90;;;;;;5051518;28;20028;-58
2021/08/10 03:06:53;;;;;;;1.95;1.10;;;24.20;50.90;;;;;;5037000;28;20419;-60
2021/08/10 03:09:20;;;;;;;1.52;1.10;;;24.20;50.90;;;;;;5035959;28;20041;-58
2021/08/10 03:11:51;;;;;;;0.82;0.77;;;24.10;50.90;;;;;;5036637;28;20040;-61
2021/08/10 03:14:17;;;;;;;2.45;1.20;;;24.10;50.90;;;;;;5054235;28;20049;-57
2021/08/10 03:16:44;;;;;;;1.95;1.00;;;24.10;50.90;;;;;;5034206;28;20535;-59
2021/08/10 03:19:12;;;;;;;1.13;0.77;;;24.10;50.90;;;;;;5036669;28;20098;-59
2021/08/10 03:21:41;;;;;;;2.10;1.10;;;24.10;50.90;;;;;;5037035;28;20107;-59
2021/08/10 03:24:09;;;;;;;1.42;1.00;;;24.10;50.90;;;;;;5053722;28;20063;-60
2021/08/10 03:26:36;;;;;;;1.23;0.98;;;24.10;50.90;;;;;;5036506;28;20039;-61
2021/08/10 03:29:04;;;;;;;1.63;1.05;;;24.10;50.90;;;;;;5036393;28;20115;-61
2021/08/10 03:31:32;;;;;;;1.60;1.00;;;24.10;50.90;;;;;;5035981;28;20025;-61
2021/08/10 03:33:59;;;;;;;1.88;1.02;;;24.10;50.90;;;;;;5036175;28;20031;-55
2021/08/10 03:36:25;;;;;;;1.00;0.90;;;24.10;50.90;;;;;;5053470;28;20028;-60
2021/08/10 03:38:57;;;;;;;1.80;1.00;;;24.10;50.90;;;;;;5036657;28;20078;-60
2021/08/10 03:41:26;;;;;;;1.45;1.00;;;24.10;50.90;;;;;;5037151;28;20021;-61
2021/08/10 03:43:54;;;;;;;1.20;0.98;;;24.10;50.90;;;;;;5036678;28;20028;-55
2021/08/10 03:46:20;;;;;;;2.08;1.20;;;24.10;50.90;;;;;;5036079;28;20053;-58
2021/08/10 03:48:49;;;;;;;1.35;0.80;;;24.10;51.00;;;;;;5036474;28;20029;-60
2021/08/10 03:51:16;;;;;;;2.17;1.00;;;24.10;51.00;;;;;;5035688;28;20028;-59
2021/08/10 03:53:43;;;;;;;1.40;0.90;;;24.10;51.00;;;;;;5036508;28;20484;-57
2021/08/10 03:56:10;;;;;;;1.15;0.90;;;24.10;51.00;;;;;;5034638;28;20028;-61
2021/08/10 03:58:41;;;;;;;1.00;0.90;;;24.10;51.00;;;;;;5024972;28;20035;-61
2021/08/10 04:01:09;;;;;;;1.60;1.10;;;24.00;50.90;;;;;;5035876;28;20040;-58
2021/08/10 04:03:40;;;;;;;2.33;1.10;;;24.00;50.90;;;;;;5036025;28;20359;-58
2021/08/10 04:06:08;;;;;;;1.30;0.90;;;24.00;50.90;;;;;;5036665;28;20487;-61
2021/08/10 04:08:35;;;;;;;1.15;0.88;;;24.00;50.90;;;;;;5036401;28;20025;-59
2021/08/10 04:11:02;;;;;;;1.52;1.02;;;24.00;50.90;;;;;;5035422;28;20360;-60
2021/08/10 04:13:31;;;;;;;1.05;0.82;;;24.00;50.90;;;;;;5035560;28;20061;-62
2021/08/10 04:16:01;;;;;;;1.30;1.00;;;24.00;51.00;;;;;;5032539;28;20028;-61
2021/08/10 04:18:29;;;;;;;1.00;0.90;;;24.00;50.90;;;;;;5033383;28;20090;-62
2021/08/10 04:20:55;;;;;;;1.58;0.80;;;24.00;50.90;;;;;;5034740;28;20462;-60
2021/08/10 04:23:24;;;;;;;1.00;0.90;;;24.00;50.90;;;;;;5035462;28;20751;-61
2021/08/10 04:25:50;;;;;;;1.55;1.00;;;24.00;50.90;;;;;;5034848;28;20029;-60
2021/08/10 04:28:16;;;;;;;1.00;0.80;;;24.00;50.90;;;;;;5053548;28;20044;-60
2021/08/10 04:30:46;;;;;;;1.35;1.13;;;24.00;50.90;;;;;;5035216;28;20120;-60
2021/08/10 04:33:13;;;;;;;1.02;0.82;;;24.00;50.90;;;;;;5035110;28;20423;-61
2021/08/10 04:35:39;;;;;;;1.05;0.88;;;24.00;50.90;;;;;;5034995;28;20024;-58
2021/08/10 04:38:05;;;;;;;1.00;0.85;;;24.00;50.90;;;;;;5034573;28;20035;-57
2021/08/10 04:40:33;;;;;;;1.42;0.70;;;24.00;50.90;;;;;;5019002;28;20151;-58
2021/08/10 04:43:18;;;;;;;0.90;0.80;;;24.00;50.90;;;;;;5035132;28;20029;-59
2021/08/10 04:45:47;;;;;;;1.05;0.90;;;24.00;50.90;;;;;;5032635;28;20035;-58
2021/08/10 04:48:13;;;;;;;1.30;0.90;;;24.00;50.90;;;;;;5034221;28;20033;-60
2021/08/10 04:50:39;;;;;;;2.03;1.38;;;24.00;50.90;;;;;;5034963;28;20463;-62
2021/08/10 04:53:07;;;;;;;1.65;0.90;;;24.00;50.90;;;;;;5034975;28;20448;-60
2021/08/10 04:55:32;;;;;;;1.83;1.00;;;23.90;50.90;;;;;;5035438;28;20051;-59
2021/08/10 04:57:59;;;;;;;2.30;1.13;;;24.00;50.90;;;;;;5018361;28;20029;-56
2021/08/10 05:00:29;;;;;;;1.17;0.90;;;23.90;50.80;;;;;;5033965;28;20351;-59
2021/08/10 05:02:55;;;;;;;1.15;0.93;;;23.90;50.80;;;;;;5034591;28;20021;-58
2021/08/10 05:05:21;;;;;;;1.52;1.00;;;24.00;50.90;;;;;;5034416;28;20032;-61
2021/08/10 05:07:47;;;;;;;1.90;0.90;;;23.90;50.80;;;;;;5035215;28;20036;-60
2021/08/10 05:10:15;;;;;;;1.88;1.00;;;24.00;50.90;;;;;;5035631;28;20033;-59
2021/08/10 05:12:41;;;;;;;1.65;0.77;;;24.00;50.90;;;;;;5034537;28;20045;-60
2021/08/10 05:15:11;;;;;;;0.93;0.82;;;24.00;50.90;;;;;;5033590;28;20064;-58
2021/08/10 05:17:37;;;;;;;1.38;0.90;;;24.00;50.90;;;;;;5034540;28;20103;-57
2021/08/10 05:20:06;;;;;;;1.50;0.90;;;24.00;50.90;;;;;;5034234;28;20037;-59
2021/08/10 05:22:34;;;;;;;1.40;0.95;;;24.00;50.90;;;;;;5035015;28;20036;-54
2021/08/10 05:24:59;;;;;;;1.42;1.00;;;23.90;50.90;;;;;;5012592;28;20080;-59
2021/08/10 05:27:29;;;;;;;1.00;0.90;;;24.00;50.90;;;;;;5034359;28;20044;-60
2021/08/10 05:29:55;;;;;;;1.23;0.98;;;24.00;50.90;;;;;;5034391;28;20092;-59
2021/08/10 05:32:21;;;;;;;1.90;1.02;;;24.00;50.90;;;;;;5033822;28;20136;-58
2021/08/10 05:34:47;;;;;;;1.67;1.10;;;23.90;50.90;;;;;;5034094;28;20032;-58
2021/08/10 05:37:13;;;;;;;2.10;1.30;;;24.00;50.90;;;;;;5034512;28;20046;-59
2021/08/10 05:39:39;;;;;;;1.55;0.93;;;24.00;50.90;;;;;;5034265;28;20035;-59
2021/08/10 05:42:06;;;;;;;1.20;1.00;;;24.00;50.90;;;;;;5033204;28;20058;-57
2021/08/10 05:44:32;;;;;;;0.77;0.70;;;24.00;50.90;;;;;;5034372;28;20092;-61
2021/08/10 05:46:59;;;;;;;1.48;0.93;;;24.00;50.90;;;;;;5033934;28;20135;-58
2021/08/10 05:49:25;;;;;;;1.17;0.80;;;23.90;50.90;;;;;;5033401;28;21493;-58
2021/08/10 05:51:51;;;;;;;1.30;1.10;;;24.00;51.00;;;;;;5034185;28;20036;-60
2021/08/10 05:54:18;;;;;;;1.25;1.05;;;24.00;50.90;;;;;;5034553;28;20025;-57
2021/08/10 05:56:48;;;;;;;1.45;1.00;;;23.90;50.90;;;;;;5033809;28;20063;-58
2021/08/10 05:59:16;;;;;;;1.10;1.00;;;24.00;51.00;;;;;;5034375;28;20025;-59
2021/08/10 06:01:43;;;;;;;0.80;0.80;;;24.00;51.00;;;;;;5033153;28;20052;-60
2021/08/10 06:04:09;;;;;;;1.45;0.95;;;24.00;51.00;;;;;;5034368;28;20029;-60
2021/08/10 06:06:37;;;;;;;2.28;1.25;;;24.00;51.00;;;;;;5033397;28;20044;-55
2021/08/10 06:09:04;;;;;;;1.88;1.38;;;24.00;51.00;;;;;;5034346;28;20437;-56
2021/08/10 06:11:31;;;;;;;1.60;1.00;;;24.00;51.00;;;;;;5034923;28;20452;-59
2021/08/10 06:13:57;;;;;;;2.25;1.02;;;24.00;51.00;;;;;;5034448;28;20053;-58
2021/08/10 06:16:23;;;;;;;1.38;1.02;;;24.00;51.00;;;;;;5034217;28;20486;-59
2021/08/10 06:18:52;;;;;;;1.60;1.10;;;24.00;51.00;;;;;;5035828;28;20476;-59
2021/08/10 06:21:22;;;;;;;1.77;1.10;;;24.00;51.00;;;;;;5035307;28;20037;-57
2021/08/10 06:23:48;;;;;;;1.10;1.00;;;24.00;51.00;;;;;;5037098;28;20043;-55
2021/08/10 06:26:14;;;;;;;1.77;0.95;;;24.00;51.00;;;;;;5037406;28;20051;-60
2021/08/10 06:28:44;;;;;;;1.85;1.08;;;24.00;51.00;;;;;;5037059;28;20028;-57
2021/08/10 06:31:10;;;;;;;1.45;1.10;;;24.00;51.00;;;;;;5037007;28;20153;-58
2021/08/10 06:33:37;;;;;;;1.08;0.88;;;24.00;51.00;;;;;;5036543;28;20474;-58
2021/08/10 06:36:04;;;;;;;1.35;1.20;;;24.00;51.00;;;;;;5037371;28;20102;-61
2021/08/10 06:38:32;;;;;;;2.60;1.13;;;24.00;51.00;;;;;;5036672;28;20021;-61
2021/08/10 06:40:59;;;;;;;1.70;1.00;;;24.00;51.00;;;;;;5036722;28;20056;-61
2021/08/10 06:43:26;;;;;;;1.55;1.05;;;24.00;51.00;;;;;;5037044;28;20033;-61
2021/08/10 06:46:11;;;;;;;2.35;1.05;;;24.00;50.90;;;;;;5052045;28;20136;-57
2021/08/10 06:48:39;;;;;;;2.00;1.33;;;24.00;51.00;;;;;;5033318;28;20636;-59
2021/08/10 06:51:09;;;;;;;1.17;1.00;;;24.00;51.00;;;;;;5037031;28;20055;-59
2021/08/10 06:53:35;;;;;;;1.85;1.17;;;24.00;51.00;;;;;;5034166;28;20433;-59
2021/08/10 06:56:01;;;;;;;3.15;1.15;;;24.00;51.00;;;;;;5035803;28;20407;-59
2021/08/10 06:58:30;;;;;;;1.83;1.27;;;24.00;51.00;;;;;;5020527;28;20021;-60
2021/08/10 07:00:58;;;;;;;2.28;1.23;;;24.10;51.00;;;;;;5037833;28;20037;-57
2021/08/10 07:03:23;;;;;;;2.03;1.40;;;24.10;51.00;;;;;;5055483;28;20128;-59
2021/08/10 07:05:49;;;;;;;1.92;1.55;;;24.10;51.00;;;;;;5037981;28;20036;-57
2021/08/10 07:08:16;;;;;;;1.63;1.10;;;24.10;51.00;;;;;;5037172;28;20021;-59
2021/08/10 07:10:42;;;;;;;2.85;1.35;;;24.00;51.00;;;;;;5036201;28;20325;-60
2021/08/10 07:13:08;;;;;;;2.08;1.52;;;24.00;51.00;;;;;;5036396;28;20047;-56
2021/08/10 07:15:35;;;;;;;2.38;1.27;;;24.00;51.10;;;;;;5037442;28;20060;-59
2021/08/10 07:18:06;;;;;;;1.95;1.42;;;24.10;51.10;;;;;;5026737;28;20071;-59
2021/08/10 07:20:32;;;;;;;2.97;1.50;;;24.10;51.10;;;;;;5035673;28;20079;-61
2021/08/10 07:22:58;;;;;;;1.60;1.30;;;24.10;51.10;;;;;;5036544;28;20457;-57
2021/08/10 07:25:34;;;;;;;2.88;1.23;;;24.10;51.10;;;;;;5035619;28;20029;-60
2021/08/10 07:28:00;;;;;;;2.15;1.50;;;24.10;51.10;;;;;;5036015;28;20048;-57
2021/08/10 07:30:28;;;;;;;1.88;1.33;;;24.10;51.10;;;;;;5035581;28;20021;-60
2021/08/10 07:32:56;;;;;;;1.75;1.23;;;24.10;51.00;;;;;;5036157;28;20437;-61
2021/08/10 07:35:26;;;;;;;2.35;1.50;;;24.10;51.00;;;;;;5035828;28;20043;-58
2021/08/10 07:37:51;;;;;;;2.10;1.30;;;24.20;51.10;;;;;;5035693;28;20017;-60
2021/08/10 07:40:21;;;;;;;1.95;1.25;;;24.10;51.00;;;;;;5035843;28;20025;-58
2021/08/10 07:42:47;;;;;;;2.45;1.30;;;24.20;51.00;;;;;;5036773;28;20036;-61
2021/08/10 07:45:14;;;;;;;2.17;1.52;;;24.20;51.00;;;;;;5036885;28;20032;-61
2021/08/10 07:47:42;;;;;;;2.88;1.60;;;24.20;51.00;;;;;;5035908;28;20131;-60
2021/08/10 07:50:09;;;;;;;2.33;1.50;;;24.20;50.90;;;;;;5035902;28;20421;-60
2021/08/10 07:52:37;;;;;;;1.70;1.23;;;24.20;50.90;;;;;;5034442;28;20115;-60
2021/08/10 07:55:03;;;;;;;3.00;1.42;;;24.20;51.00;;;;;;5034968;28;20459;-59
2021/08/10 07:57:29;;;;;;;2.30;1.40;;;24.20;50.90;;;;;;5053404;28;20021;-59
2021/08/10 07:59:55;;;;;;;2.40;1.42;;;24.20;50.90;;;;;;5035600;28;20029;-59
2021/08/10 08:02:25;;;;;;;2.58;1.42;;;24.20;50.90;;;;;;5035330;28;20072;-57
2021/08/10 08:04:51;;;;;;;2.75;1.65;;;24.20;50.90;;;;;;5035010;28;20083;-60
2021/08/10 08:07:17;;;;;;;2.72;1.50;;;24.20;50.90;;;;;;5034518;28;20040;-58
2021/08/10 08:09:43;;;;;;;2.78;1.50;;;24.20;50.90;;;;;;5036763;28;20021;-61
2021/08/10 08:12:09;;;;;;;2.10;1.40;;;24.20;51.00;;;;;;5035136;28;20040;-62
2021/08/10 08:14:37;;;;;;;2.25;1.60;;;24.20;51.00;;;;;;5032049;28;20061;-61
2021/08/10 08:17:04;;;;;;;2.95;1.65;;;24.20;51.00;;;;;;5033156;28;20068;-60
2021/08/10 08:19:31;;;;;;;2.70;1.40;;;24.20;51.00;;;;;;5033148;28;20044;-61
2021/08/10 08:21:59;;;;;;;4.32;1.90;;;24.30;51.10;;;;;;5032926;28;20033;-61
2021/08/10 08:24:25;;;;;;;2.42;1.60;;;24.30;51.10;;;;;;5034443;28;20507;-60
2021/08/10 08:26:51;;;;;;;2.90;1.63;;;24.40;51.10;;;;;;5032067;28;20033;-58
2021/08/10 08:29:17;;;;;;;2.53;1.67;;;24.40;51.00;;;;;;5034446;28;20354;-62
2021/08/10 08:31:44;;;;;;;1.77;1.38;;;24.40;51.10;;;;;;5032726;28;20033;-61
2021/08/10 08:34:10;;;;;;;3.47;1.65;;;24.50;50.90;;;;;;5032993;28;20033;-59
2021/08/10 08:36:36;;;;;;;1.70;1.58;;;24.50;50.80;;;;;;5031604;28;20040;-60
2021/08/10 08:39:02;;;;;;;2.08;1.60;;;24.60;50.90;;;;;;5032258;28;20025;-57
2021/08/10 08:41:31;;;;;;;1.90;1.50;;;24.60;50.80;;;;;;5032580;28;20021;-61
2021/08/10 08:43:57;;;;;;;2.30;1.40;;;24.60;50.70;;;;;;5032107;28;20025;-59
2021/08/10 08:46:24;;;;;;;2.08;1.15;;;24.70;50.70;;;;;;5034755;28;20079;-57
2021/08/10 08:48:51;;;;;;;2.83;1.60;;;24.70;50.60;;;;;;5032763;28;20021;-57
2021/08/10 08:51:24;;;;;;;1.73;1.35;;;24.70;50.60;;;;;;5033001;28;20044;-58
2021/08/10 08:53:53;;;;;;;1.73;1.27;;;24.70;50.50;;;;;;5032327;28;20056;-57
2021/08/10 08:56:23;;;;;;;2.50;1.60;;;24.70;50.40;;;;;;5016462;28;20025;-62
2021/08/10 08:58:52;;;;;;;2.13;1.55;;;24.70;50.30;;;;;;5033260;28;20030;-57
2021/08/10 09:01:20;;;;;;;1.65;1.40;;;24.80;50.30;;;;;;5032669;28;20037;-56
2021/08/10 09:03:46;;;;;;;2.65;1.25;;;24.80;50.30;;;;;;5032433;28;20026;-59
2021/08/10 09:06:12;;;;;;;2.00;1.48;;;24.80;50.20;;;;;;5032559;28;20037;-59
2021/08/10 09:08:40;;;;;;;1.77;1.40;;;24.80;50.00;;;;;;5033060;28;20037;-59
2021/08/10 09:11:16;;;;;;;1.42;1.20;;;24.80;50.00;;;;;;5032600;28;20053;-60
2021/08/10 09:14:02;;;;;;;1.27;1.10;;;24.90;49.90;;;;;;5034915;28;21310;-56
2021/08/10 09:16:35;;;;;;;3.17;1.30;;;24.90;49.80;;;;;;5035814;28;20127;-60
2021/08/10 09:19:02;;;;;;;1.33;1.10;;;24.90;49.70;;;;;;5035964;28;20040;-59
2021/08/10 09:21:28;;;;;;;2.28;1.30;;;24.90;49.70;;;;;;5035378;28;20025;-55
2021/08/10 09:23:59;;;;;;;1.40;1.15;;;24.90;49.60;;;;;;5035887;28;20075;-61
2021/08/10 09:26:37;;;;;;;1.55;1.20;;;24.90;49.50;;;;;;5019476;28;20041;-58
2021/08/10 09:29:04;;;;;;;1.40;0.98;;;24.90;49.40;;;;;;5035872;28;20025;-61
2021/08/10 09:31:43;;;;;;;1.80;1.20;;;25.00;49.40;;;;;;5035967;28;20082;-61
2021/08/10 09:34:24;;;;;;;1.58;1.10;;;24.90;49.30;;;;;;5035772;28;20067;-59
2021/08/10 09:36:53;;;;;;;2.10;1.20;;;25.00;49.30;;;;;;5035923;28;20033;-56
2021/08/10 09:39:33;;;;;;;1.92;1.30;;;25.00;49.30;;;;;;5034814;28;20068;-57
2021/08/10 09:42:01;;;;;;;1.95;1.20;;;25.00;49.20;;;;;;5035785;28;20047;-54
2021/08/10 09:44:27;;;;;;;1.70;1.20;;;25.00;49.20;;;;;;5053500;28;20029;-58
2021/08/10 09:46:53;;;;;;;2.05;1.10;;;25.00;49.10;;;;;;5035962;28;20044;-60
2021/08/10 09:49:20;;;;;;;1.60;1.15;;;25.00;49.20;;;;;;5035409;28;20056;-60
2021/08/10 09:51:48;;;;;;;1.88;1.17;;;25.00;49.10;;;;;;5034670;28;20338;-59
2021/08/10 09:54:15;;;;;;;1.85;1.27;;;25.00;49.10;;;;;;5018900;28;20372;-60
2021/08/10 09:56:53;;;;;;;1.17;0.95;;;25.00;49.10;;;;;;5026106;28;20090;-61
2021/08/10 09:59:27;;;;;;;1.55;1.20;;;25.00;49.10;;;;;;5039677;28;20028;-56
2021/08/10 10:01:59;;;;;;;1.08;0.82;;;25.00;49.10;;;;;;5038976;28;20444;-57
2021/08/10 10:04:26;;;;;;;1.40;1.15;;;25.00;49.10;;;;;;5038916;28;20356;-60
2021/08/10 10:07:12;;;;;;;1.20;1.10;;;25.00;49.20;;;;;;5045930;28;20079;-60
2021/08/10 10:09:46;;;;;;;1.33;1.00;;;25.00;49.30;;;;;;5038482;28;20033;-60
2021/08/10 10:12:19;;;;;;;1.38;1.20;;;25.00;49.30;;;;;;5035355;28;20017;-60
2021/08/10 10:14:46;;;;;;;1.40;1.08;;;25.00;49.40;;;;;;5038526;28;20075;-59
2021/08/10 10:17:13;;;;;;;1.25;1.08;;;25.00;49.50;;;;;;5056222;28;20483;-57
2021/08/10 10:19:45;;;;;;;1.05;0.90;;;25.00;49.60;;;;;;5057065;28;20033;-58
2021/08/10 10:22:17;;;;;;;1.88;1.10;;;25.00;50.00;;;;;;5056562;28;20033;-61
2021/08/10 10:25:09;;;;;;;1.90;1.42;;;25.00;49.80;;;;;;5055768;28;20095;-58
2021/08/10 10:27:36;;;;;;;1.48;1.10;;;25.10;49.90;;;;;;5052099;28;20140;-58
2021/08/10 10:30:05;;;;;;;1.35;1.00;;;25.00;49.90;;;;;;5056048;28;20057;-61
2021/08/10 10:32:30;;;;;;;1.38;1.05;;;25.00;50.00;;;;;;5056046;28;20035;-56
2021/08/10 10:34:56;;;;;;;1.75;1.30;;;25.10;50.10;;;;;;5056966;28;20499;-59
2021/08/10 10:37:25;;;;;;;1.40;1.00;;;25.00;50.00;;;;;;5056351;28;20116;-58
2021/08/10 10:40:00;;;;;;;2.05;0.93;;;25.10;50.30;;;;;;5054967;28;20045;-60
2021/08/10 10:42:27;;;;;;;1.70;1.20;;;25.10;50.00;;;;;;5055196;28;20033;-62
2021/08/10 10:44:56;;;;;;;3.47;1.30;;;25.00;50.00;;;;;;5054887;28;20025;-57
2021/08/10 10:47:29;;;;;;;1.33;1.00;;;25.10;50.10;;;;;;5052662;28;20037;-59
2021/08/10 10:49:57;;;;;;;1.70;1.20;;;25.10;50.10;;;;;;5031929;28;20079;-59
2021/08/10 10:52:30;;;;;;;1.30;1.08;;;25.10;50.20;;;;;;5050731;28;20044;-57
2021/08/10 10:54:57;;;;;;;1.67;1.17;;;25.10;50.20;;;;;;5055922;28;20346;-56
2021/08/10 10:57:29;;;;;;;1.65;1.10;;;25.10;50.10;;;;;;5055784;28;20035;-55
2021/08/10 11:00:03;;;;;;;1.27;1.15;;;25.10;50.00;;;;;;5055729;28;20029;-57
2021/08/10 11:02:33;;;;;;;1.75;0.93;;;25.20;50.00;;;;;;5055427;28;20033;-59
2021/08/10 11:05:08;;;;;;;1.60;1.30;;;25.20;50.00;;;;;;5037366;28;20044;-59
2021/08/10 11:07:39;;;;;;;1.73;1.30;;;25.20;49.90;;;;;;5055898;28;20052;-57
2021/08/10 11:10:06;;;;;;;2.03;1.25;;;25.10;49.80;;;;;;5056167;28;20187;-57
2021/08/10 11:12:54;;;;;;;1.50;0.93;;;25.10;49.70;;;;;;5055856;28;20115;-58
2021/08/10 11:15:43;;;;;;;1.67;1.25;;;25.20;49.60;;;;;;5054671;28;20052;-56
2021/08/10 11:18:09;;;;;;;0.75;0.75;;;25.20;49.40;;;;;;5055598;28;20091;-59
2021/08/10 11:20:39;;;;;;;1.35;1.08;;;25.20;49.30;;;;;;5054751;28;20364;-56
2021/08/10 11:23:23;;;;;;;1.35;1.00;;;25.20;48.90;;;;;;5055119;28;20079;-57
2021/08/10 11:25:51;;;;;;;1.60;1.00;;;25.20;48.50;;;;;;5054197;28;20033;-60
2021/08/10 11:28:30;;;;;;;1.95;1.20;;;25.20;48.50;;;;;;5053956;28;20041;-53
2021/08/10 11:31:03;;;;;;;1.20;0.95;;;25.20;48.40;;;;;;5052204;28;20028;-60
2021/08/10 11:33:37;;;;;;;1.08;0.90;;;25.30;48.30;;;;;;5053262;28;20029;-55
2021/08/10 11:36:23;;;;;;;1.10;1.00;;;25.20;48.10;;;;;;5050852;28;20036;-61
2021/08/10 11:38:51;;;;;;;1.77;1.00;;;25.20;48.00;;;;;;5048823;28;20045;-61
2021/08/10 11:41:31;;;;;;;2.58;1.10;;;25.30;48.10;;;;;;5052722;28;20029;-60
2021/08/10 11:44:00;;;;;;;1.42;1.05;;;25.30;48.00;;;;;;5044390;28;20033;-60
2021/08/10 11:46:27;;;;;;;1.25;1.05;;;25.30;48.10;;;;;;5052169;28;20064;-59
2021/08/10 11:49:00;;;;;;;1.80;1.17;;;25.30;47.90;;;;;;5034782;28;20029;-61
2021/08/10 11:51:33;;;;;;;1.42;1.17;;;25.40;47.90;;;;;;5052275;28;20040;-57
2021/08/10 11:54:05;;;;;;;1.80;1.20;;;25.40;47.80;;;;;;5053838;28;20037;-60
2021/08/10 11:56:34;;;;;;;1.42;1.17;;;25.40;47.70;;;;;;5052919;28;20138;-55
2021/08/10 11:59:03;;;;;;;1.77;1.30;;;25.40;47.70;;;;;;5053191;28;20104;-53
2021/08/10 12:01:30;;;;;;;2.13;1.20;;;25.40;47.70;;;;;;5052710;28;20037;-53
2021/08/10 12:04:12;;;;;;;2.67;1.73;;;25.40;47.70;;;;;;5053994;28;20035;-59
2021/08/10 12:06:39;;;;;;;1.40;1.00;;;25.40;47.50;;;;;;5050773;28;20128;-56
2021/08/10 12:09:08;;;;;;;1.83;1.33;;;25.40;47.60;;;;;;5053452;28;20044;-60
2021/08/10 12:11:34;;;;;;;2.10;1.60;;;25.50;47.50;;;;;;5035447;28;20030;-57
2021/08/10 12:14:15;;;;;;;2.45;1.63;;;25.50;47.50;;;;;;5035031;28;20361;-57
2021/08/10 12:17:03;;;;;;;2.65;1.35;;;25.50;47.40;;;;;;5051863;28;20087;-57
2021/08/10 12:19:41;;;;;;;1.83;1.10;;;25.60;47.40;;;;;;5035439;28;20036;-56
2021/08/10 12:22:21;;;;;;;1.40;1.10;;;25.60;47.40;;;;;;5052390;28;20116;-60
2021/08/10 12:24:49;;;;;;;2.03;1.10;;;25.60;47.30;;;;;;5035164;28;20082;-59
2021/08/10 12:27:17;;;;;;;2.00;1.30;;;25.60;47.40;;;;;;5052887;28;20459;-56
2021/08/10 12:29:53;;;;;;;2.15;1.40;;;25.60;47.40;;;;;;5053171;28;20029;-57
2021/08/10 12:32:31;;;;;;;2.95;1.98;;;25.60;47.30;;;;;;5052697;28;20040;-61
2021/08/10 12:35:09;;;;;;;1.95;1.50;;;25.60;47.30;;;;;;5052497;28;20032;-60
2021/08/10 12:37:35;;;;;;;1.70;1.42;;;25.60;47.30;;;;;;5035491;28;20100;-59
2021/08/10 12:40:03;;;;;;;2.22;1.45;;;25.60;47.40;;;;;;5053082;28;20382;-57
2021/08/10 12:42:29;;;;;;;2.13;1.45;;;25.60;47.40;;;;;;5050463;28;20043;-60
2021/08/10 12:44:55;;;;;;;1.48;1.27;;;25.60;47.40;;;;;;5032721;28;20041;-57
2021/08/10 12:47:34;;;;;;;2.85;1.58;;;25.70;47.30;;;;;;5051285;28;20087;-60
2021/08/10 12:50:01;;;;;;;1.88;1.35;;;25.70;47.20;;;;;;5050553;28;20044;-61
2021/08/10 12:52:43;;;;;;;1.65;1.52;;;25.70;47.20;;;;;;5052137;28;20039;-56
2021/08/10 12:55:09;;;;;;;1.85;1.13;;;25.70;47.00;;;;;;5051186;28;20052;-60
2021/08/10 12:57:35;;;;;;;1.75;1.10;;;25.70;47.00;;;;;;5053907;28;20033;-58
2021/08/10 13:00:18;;;;;;;1.35;0.93;;;25.80;47.00;;;;;;5053126;28;20356;-57